createdAt,value
2023-04-11T00:02:09.150Z,15.90
2023-04-11T00:07:12.049Z,13.13
2023-04-11T00:12:15.010Z,14.73
2023-04-11T00:17:18.048Z,13.52
2023-04-11T00:22:20.854Z,10.82
2023-04-11T00:27:24.030Z,10.35
2023-04-11T00:32:27.295Z,11.43
2023-04-11T00:37:51.659Z,12.63
2023-04-11T00:42:56.360Z,11.75
2023-04-11T00:47:59.574Z,11.38
2023-04-11T00:53:02.612Z,12.18
2023-04-11T00:58:08.443Z,12.23
2023-04-11T01:03:12.271Z,11.85
2023-04-11T01:08:15.965Z,11.82
2023-04-11T01:13:19.211Z,12.20
2023-04-11T01:18:22.204Z,13.43
2023-04-11T01:23:25.661Z,11.10
2023-04-11T01:28:28.830Z,11.60
2023-04-11T01:33:32.101Z,11.15
2023-04-11T01:43:39.195Z,11.82
2023-04-11T01:48:43.187Z,14.02
2023-04-11T01:53:47.654Z,14.60
2023-04-11T01:58:50.730Z,17.75
2023-04-11T02:03:53.741Z,18.42
2023-04-11T02:08:56.713Z,19.58
2023-04-11T02:14:00.039Z,18.15
2023-04-11T02:19:26.303Z,18.23
2023-04-11T02:24:30.039Z,16.98
2023-04-11T02:29:33.551Z,16.67
2023-04-11T02:34:36.372Z,14.75
2023-04-11T02:39:39.306Z,15.07
2023-04-11T02:44:42.206Z,15.05
2023-04-11T02:49:45.309Z,16.58
2023-04-11T02:54:52.493Z,15.32
2023-04-11T02:59:55.601Z,15.15
2023-04-11T03:05:05.470Z,14.70
2023-04-11T03:10:11.850Z,14.65
2023-04-11T03:15:15.745Z,15.95
2023-04-11T03:20:20.421Z,16.25
2023-04-11T03:25:29.057Z,16.05
2023-04-11T03:30:32.920Z,15.20
2023-04-11T03:35:36.861Z,15.85
2023-04-11T03:40:39.954Z,16.98
2023-04-11T03:45:51.837Z,16.48
2023-04-11T03:51:07.876Z,16.70
2023-04-11T03:56:25.785Z,17.60
2023-04-11T04:01:29.346Z,15.55
2023-04-11T04:06:37.252Z,16.45
2023-04-11T04:11:40.754Z,15.93
2023-04-11T04:16:43.978Z,17.08
2023-04-11T04:21:50.288Z,17.13
2023-04-11T04:26:54.588Z,15.95
2023-04-11T04:32:23.429Z,17.08
2023-04-11T04:37:30.770Z,14.77
2023-04-11T04:42:45.591Z,13.65
2023-04-11T04:47:48.563Z,15.98
2023-04-11T04:52:51.535Z,17.08
2023-04-11T04:57:54.710Z,16.65
2023-04-11T05:02:58.538Z,15.00
2023-04-11T05:08:06.170Z,14.15
2023-04-11T05:13:10.811Z,15.48
2023-04-11T05:18:13.875Z,15.77
2023-04-11T05:23:16.954Z,16.08
2023-04-11T05:28:20.236Z,15.38
2023-04-11T05:33:24.938Z,14.20
2023-04-11T05:38:28.145Z,13.40
2023-04-11T05:43:31.503Z,13.43
2023-04-11T05:48:38.349Z,13.93
2023-04-11T05:53:59.902Z,14.57
2023-04-11T05:59:25.190Z,15.23
2023-04-11T06:04:30.139Z,16.60
2023-04-11T06:09:34.245Z,12.63
2023-04-11T06:14:39.588Z,13.30
2023-04-11T06:19:43.261Z,11.95
2023-04-11T06:24:46.105Z,10.25
2023-04-11T06:29:49.026Z,10.55
2023-04-11T06:34:52.791Z,10.38
2023-04-11T06:39:55.663Z,10.30
2023-04-11T06:44:58.759Z,10.00
2023-04-11T06:50:01.721Z,10.30
2023-04-11T06:55:23.545Z,9.32
2023-04-11T07:00:26.700Z,9.50
2023-04-11T07:05:29.512Z,8.20
2023-04-11T07:10:32.404Z,8.32
2023-04-11T07:15:35.152Z,8.65
2023-04-11T07:20:56.711Z,8.73
2023-04-11T07:25:59.487Z,7.93
2023-04-11T07:31:02.338Z,7.70
2023-04-11T07:36:06.782Z,7.40
2023-04-11T07:41:10.308Z,7.32
2023-04-11T07:46:15.309Z,4.13
2023-04-11T07:51:18.324Z,4.90
2023-04-11T07:56:21.420Z,4.53
2023-04-11T08:06:29.366Z,4.55
2023-04-11T08:11:32.417Z,3.95
2023-04-11T08:16:54.087Z,4.15
2023-04-11T08:21:57.067Z,3.72
2023-04-11T08:26:59.839Z,4.25
2023-04-11T08:32:02.994Z,4.20
2023-04-11T08:37:06.009Z,4.22
2023-04-11T08:42:22.305Z,4.60
2023-04-11T08:47:45.639Z,4.40
2023-04-11T08:52:51.113Z,4.40
2023-04-11T08:57:55.356Z,4.80
2023-04-11T09:02:59.672Z,4.85
2023-04-11T09:08:22.369Z,4.60
2023-04-11T09:13:27.173Z,4.72
2023-04-11T09:18:40.149Z,4.57
2023-04-11T09:23:43.514Z,4.40
2023-04-11T09:28:54.119Z,4.57
2023-04-11T09:34:26.152Z,4.47
2023-04-11T09:39:30.162Z,3.35
2023-04-11T09:44:38.237Z,3.92
2023-04-11T09:49:42.176Z,4.40
2023-04-11T09:54:45.914Z,3.92
2023-04-11T09:59:49.669Z,5.00
2023-04-11T10:04:54.906Z,3.88
2023-04-11T10:09:57.788Z,4.90
2023-04-11T10:20:45.118Z,4.97
2023-04-11T10:25:50.754Z,5.20
2023-04-11T10:31:13.501Z,5.20
2023-04-11T10:36:16.490Z,5.07
2023-04-11T10:46:45.065Z,4.47
2023-04-11T10:51:47.945Z,4.70
2023-04-11T11:01:58.152Z,4.85
2023-04-11T11:07:05.952Z,4.82
2023-04-11T11:12:13.758Z,4.50
2023-04-11T11:17:17.587Z,5.70
2023-04-11T11:22:26.691Z,5.22
2023-04-11T11:27:29.561Z,5.25
2023-04-11T11:37:36.559Z,5.38
2023-04-11T11:42:58.198Z,5.07
2023-04-11T11:48:01.905Z,4.78
2023-04-11T11:53:16.713Z,5.88
2023-04-11T11:58:45.226Z,6.03
2023-04-11T12:03:51.818Z,6.15
2023-04-11T12:09:07.632Z,6.13
2023-04-11T12:14:10.672Z,6.30
2023-04-11T12:19:13.645Z,7.35
2023-04-11T12:24:16.846Z,7.60
2023-04-11T12:29:19.700Z,8.23
2023-04-11T12:34:22.870Z,9.13
2023-04-11T12:39:26.087Z,6.45
2023-04-11T12:44:29.336Z,9.00
2023-04-11T12:49:32.360Z,9.85
2023-04-11T12:54:36.132Z,10.07
2023-04-11T12:59:39.473Z,10.80
2023-04-11T13:04:42.585Z,12.57
2023-04-11T13:09:45.779Z,10.77
2023-04-11T13:14:48.739Z,11.93
2023-04-11T13:20:11.006Z,10.45
2023-04-11T13:25:14.100Z,9.93
2023-04-11T13:30:17.116Z,8.65
2023-04-11T13:35:19.966Z,8.68
2023-04-11T13:40:42.988Z,8.65
2023-04-11T13:45:46.194Z,9.20
2023-04-11T13:50:49.174Z,9.27
2023-04-11T13:55:52.076Z,8.57
2023-04-11T14:00:55.139Z,8.60
2023-04-11T14:05:58.013Z,8.43
2023-04-11T14:11:01.756Z,9.25
2023-04-11T14:16:12.273Z,8.27
2023-04-11T14:21:15.787Z,10.32
2023-04-11T14:26:18.822Z,10.43
2023-04-11T14:31:22.127Z,9.50
2023-04-11T14:36:25.185Z,9.73
2023-04-11T14:41:28.046Z,9.50
2023-04-11T14:46:31.321Z,8.70
2023-04-11T14:51:35.366Z,9.10
2023-04-11T14:56:38.206Z,8.82
2023-04-11T15:01:41.195Z,6.45
2023-04-11T15:06:44.383Z,6.93
2023-04-11T15:11:47.727Z,6.18
2023-04-11T15:16:52.346Z,6.95
2023-04-11T15:21:55.289Z,7.43
2023-04-11T15:26:58.396Z,7.07
2023-04-11T15:32:03.481Z,6.85
2023-04-11T15:37:11.529Z,7.50
2023-04-11T15:42:14.459Z,6.22
2023-04-11T15:47:17.985Z,7.30
2023-04-11T15:52:21.588Z,9.30
2023-04-11T15:57:24.703Z,8.40
2023-04-11T16:07:31.393Z,10.70
2023-04-11T16:12:35.175Z,13.02
2023-04-11T16:17:38.226Z,13.60
2023-04-11T16:22:59.174Z,10.55
2023-04-11T16:28:02.280Z,12.32
2023-04-11T16:38:07.814Z,9.38
2023-04-11T16:43:10.836Z,8.38
2023-04-11T16:48:14.245Z,8.25
2023-04-11T16:53:18.735Z,8.50
2023-04-11T16:58:21.605Z,9.32
2023-04-11T17:03:24.672Z,8.95
2023-04-11T17:13:30.734Z,8.00
2023-04-11T17:23:42.934Z,7.95
2023-04-11T17:29:06.671Z,8.95
2023-04-11T17:34:09.559Z,12.57
2023-04-11T17:39:17.877Z,13.55
2023-04-11T17:44:21.238Z,12.98
2023-04-11T17:49:25.134Z,13.13
2023-04-11T17:54:28.119Z,13.30
2023-04-11T17:59:32.188Z,13.20
2023-04-11T18:04:35.822Z,15.02
2023-04-11T18:09:38.978Z,13.20
2023-04-11T18:14:42.063Z,14.82
2023-04-11T18:19:44.932Z,12.55
2023-04-11T18:24:47.724Z,13.90
2023-04-11T18:30:13.437Z,10.75
2023-04-11T18:35:17.389Z,8.50
2023-04-11T18:40:20.304Z,7.20
2023-04-11T18:45:23.484Z,6.93
2023-04-11T18:50:28.067Z,6.72
2023-04-11T18:55:31.014Z,6.28
2023-04-11T19:00:34.780Z,6.00
2023-04-11T19:05:37.987Z,6.32
2023-04-11T19:10:41.301Z,5.97
2023-04-11T19:15:44.375Z,6.13
2023-04-11T19:20:48.651Z,5.88
2023-04-11T19:25:51.957Z,5.43
2023-04-11T19:31:13.328Z,5.60
2023-04-11T19:36:16.256Z,5.90
2023-04-11T19:41:19.922Z,5.38
2023-04-11T19:46:22.905Z,5.78
2023-04-11T19:51:26.378Z,5.50
2023-04-11T20:01:32.626Z,6.25
2023-04-11T20:06:35.500Z,7.88
2023-04-11T20:11:39.491Z,8.35
2023-04-11T20:16:42.559Z,10.10
2023-04-11T20:21:45.530Z,10.10
2023-04-11T20:26:48.375Z,10.85
2023-04-11T20:31:51.342Z,11.85
2023-04-11T20:36:54.260Z,13.32
2023-04-11T20:41:57.255Z,11.95
2023-04-11T20:47:18.886Z,11.18
2023-04-11T20:52:23.007Z,11.30
2023-04-11T20:57:44.999Z,10.02
2023-04-11T21:02:50.740Z,11.85
2023-04-11T21:07:58.487Z,14.40
2023-04-11T21:13:01.369Z,13.95
2023-04-11T21:18:07.335Z,14.38
2023-04-11T21:23:10.587Z,14.98
2023-04-11T21:28:13.613Z,15.55
2023-04-11T21:33:17.551Z,15.38
2023-04-11T21:38:38.973Z,16.33
2023-04-11T21:43:42.003Z,16.35
2023-04-11T21:48:44.875Z,16.73
2023-04-11T21:54:06.920Z,16.40
2023-04-11T21:59:10.290Z,16.42
2023-04-11T22:04:41.263Z,16.75
2023-04-11T22:09:46.987Z,17.73
2023-04-11T22:14:52.936Z,17.30
2023-04-11T22:19:58.419Z,16.40
2023-04-11T22:25:01.271Z,17.13
2023-04-11T22:30:06.515Z,17.48
2023-04-11T22:35:09.638Z,15.95
2023-04-11T22:40:13.866Z,15.65
2023-04-11T22:45:16.960Z,15.00
2023-04-11T22:50:21.240Z,15.52
2023-04-11T22:55:25.156Z,16.48
2023-04-11T23:05:32.010Z,14.55
2023-04-11T23:10:34.961Z,14.88
2023-04-11T23:15:37.796Z,15.07
2023-04-11T23:20:42.219Z,16.20
2023-04-11T23:26:04.822Z,14.90
2023-04-11T23:31:26.430Z,16.08
2023-04-11T23:36:29.618Z,14.90
2023-04-11T23:41:32.636Z,15.13
2023-04-11T23:46:54.090Z,14.82
2023-04-11T23:51:57.054Z,13.52
2023-04-11T23:57:00.268Z,13.05
